Fort Saint John, Canada
Current Conditions -  °F | °C
As of 2:00 AM on Wednesday 22 Oct 2014 (Local Time) from CYXJ Reporting Station
Broken Clouds Broken Clouds  
Wind Chill:   Ceiling: 18000
Heat Index:   Visibility: 15mi
Dew Point:   Wind: 8mph
Humidity: 76%   Direction: 120°ESE
Pressure: 29.52"   Gusts: NA
Location:  56.25°N, 120.85°W
Report Text: CYXJ 220800Z 12007KT 15SM SCT100 BKN180 05/01 A2952 RMK AC3AC2 SLP013
Loading
Personal Weather Stations






























Interactive Weather Map
Tropical Storm Tracking
New forecast layout! Learn more

10-Day Weather Forecast

Advertisements
Track Severe Weather on mobile